sensor_id;sensor_type;location;lat;lon;timestamp;P1;durP1;ratioP1;P2;durP2;ratioP2
74335;SDS011;62755;-33.398;-70.572;2024-02-14T00:01:52;24.23;;;6.22;;
74335;SDS011;62755;-33.398;-70.572;2024-02-14T00:04:22;81.38;;;44.47;;
74335;SDS011;62755;-33.398;-70.572;2024-02-14T00:06:52;34.97;;;6.90;;
74335;SDS011;62755;-33.398;-70.572;2024-02-14T00:09:23;26.73;;;5.40;;
74335;SDS011;62755;-33.398;-70.572;2024-02-14T00:11:54;30.92;;;6.07;;
74335;SDS011;62755;-33.398;-70.572;2024-02-14T00:14:25;41.08;;;15.82;;
74335;SDS011;62755;-33.398;-70.572;2024-02-14T00:16:55;29.80;;;8.93;;
74335;SDS011;62755;-33.398;-70.572;2024-02-14T00:19:25;26.10;;;7.95;;
74335;SDS011;62755;-33.398;-70.572;2024-02-14T00:21:55;91.75;;;46.70;;
74335;SDS011;62755;-33.398;-70.572;2024-02-14T00:24:26;32.45;;;8.63;;
74335;SDS011;62755;-33.398;-70.572;2024-02-14T00:27:00;29.60;;;7.68;;
74335;SDS011;62755;-33.398;-70.572;2024-02-14T00:29:30;30.08;;;7.22;;
74335;SDS011;62755;-33.398;-70.572;2024-02-14T00:32:02;33.70;;;6.05;;
74335;SDS011;62755;-33.398;-70.572;2024-02-14T00:34:32;21.63;;;5.65;;
74335;SDS011;62755;-33.398;-70.572;2024-02-14T00:37:02;22.98;;;4.97;;
74335;SDS011;62755;-33.398;-70.572;2024-02-14T00:39:32;27.23;;;4.93;;
74335;SDS011;62755;-33.398;-70.572;2024-02-14T00:42:05;26.25;;;4.85;;
74335;SDS011;62755;-33.398;-70.572;2024-02-14T00:44:35;29.40;;;4.82;;
74335;SDS011;62755;-33.398;-70.572;2024-02-14T00:47:05;19.95;;;4.57;;
74335;SDS011;62755;-33.398;-70.572;2024-02-14T00:49:36;29.00;;;5.22;;
74335;SDS011;62755;-33.398;-70.572;2024-02-14T00:52:07;25.65;;;3.90;;
74335;SDS011;62755;-33.398;-70.572;2024-02-14T00:54:37;18.95;;;4.22;;
74335;SDS011;62755;-33.398;-70.572;2024-02-14T00:57:10;25.80;;;4.63;;
74335;SDS011;62755;-33.398;-70.572;2024-02-14T00:59:40;18.88;;;4.38;;
74335;SDS011;62755;-33.398;-70.572;2024-02-14T01:02:11;18.20;;;4.57;;
74335;SDS011;62755;-33.398;-70.572;2024-02-14T01:04:41;26.40;;;5.10;;
74335;SDS011;62755;-33.398;-70.572;2024-02-14T01:07:13;29.90;;;5.82;;
74335;SDS011;62755;-33.398;-70.572;2024-02-14T01:09:46;23.73;;;5.63;;
74335;SDS011;62755;-33.398;-70.572;2024-02-14T01:14:52;29.42;;;5.75;;
74335;SDS011;62755;-33.398;-70.572;2024-02-14T01:17:23;21.98;;;4.97;;
74335;SDS011;62755;-33.398;-70.572;2024-02-14T01:19:53;20.75;;;4.95;;
74335;SDS011;62755;-33.398;-70.572;2024-02-14T01:22:25;19.17;;;5.13;;
74335;SDS011;62755;-33.398;-70.572;2024-02-14T01:24:58;22.58;;;4.47;;
74335;SDS011;62755;-33.398;-70.572;2024-02-14T01:27:31;17.58;;;4.95;;
74335;SDS011;62755;-33.398;-70.572;2024-02-14T01:30:04;27.83;;;4.70;;
74335;SDS011;62755;-33.398;-70.572;2024-02-14T01:32:35;28.35;;;4.63;;
74335;SDS011;62755;-33.398;-70.572;2024-02-14T01:35:08;34.35;;;5.50;;
74335;SDS011;62755;-33.398;-70.572;2024-02-14T01:37:39;27.13;;;5.22;;
74335;SDS011;62755;-33.398;-70.572;2024-02-14T01:40:13;27.92;;;5.57;;
74335;SDS011;62755;-33.398;-70.572;2024-02-14T01:42:45;18.55;;;4.55;;
74335;SDS011;62755;-33.398;-70.572;2024-02-14T01:45:19;31.02;;;4.32;;
74335;SDS011;62755;-33.398;-70.572;2024-02-14T01:47:50;27.13;;;5.43;;
74335;SDS011;62755;-33.398;-70.572;2024-02-14T01:50:26;28.33;;;5.22;;
74335;SDS011;62755;-33.398;-70.572;2024-02-14T01:52:58;25.77;;;6.20;;
74335;SDS011;62755;-33.398;-70.572;2024-02-14T01:55:29;32.10;;;7.13;;
74335;SDS011;62755;-33.398;-70.572;2024-02-14T01:58:03;27.27;;;6.65;;
74335;SDS011;62755;-33.398;-70.572;2024-02-14T02:00:34;54.05;;;25.90;;
74335;SDS011;62755;-33.398;-70.572;2024-02-14T02:03:07;101.22;;;48.00;;
74335;SDS011;62755;-33.398;-70.572;2024-02-14T02:05:39;103.40;;;44.80;;
74335;SDS011;62755;-33.398;-70.572;2024-02-14T02:08:09;83.15;;;35.63;;
74335;SDS011;62755;-33.398;-70.572;2024-02-14T02:10:40;97.63;;;39.25;;
74335;SDS011;62755;-33.398;-70.572;2024-02-14T02:13:13;34.42;;;6.32;;
74335;SDS011;62755;-33.398;-70.572;2024-02-14T02:15:44;31.65;;;5.72;;
74335;SDS011;62755;-33.398;-70.572;2024-02-14T02:18:15;32.30;;;5.47;;
74335;SDS011;62755;-33.398;-70.572;2024-02-14T02:20:45;27.20;;;5.72;;
74335;SDS011;62755;-33.398;-70.572;2024-02-14T02:23:18;23.27;;;5.50;;
74335;SDS011;62755;-33.398;-70.572;2024-02-14T02:25:48;17.63;;;4.10;;
74335;SDS011;62755;-33.398;-70.572;2024-02-14T02:28:24;25.83;;;5.47;;
74335;SDS011;62755;-33.398;-70.572;2024-02-14T02:30:58;26.15;;;4.82;;
74335;SDS011;62755;-33.398;-70.572;2024-02-14T02:33:30;31.02;;;4.97;;
74335;SDS011;62755;-33.398;-70.572;2024-02-14T02:36:06;29.48;;;4.93;;
74335;SDS011;62755;-33.398;-70.572;2024-02-14T02:38:46;28.33;;;5.18;;
74335;SDS011;62755;-33.398;-70.572;2024-02-14T02:41:17;31.13;;;8.73;;
74335;SDS011;62755;-33.398;-70.572;2024-02-14T02:43:50;74.65;;;33.95;;
74335;SDS011;62755;-33.398;-70.572;2024-02-14T02:46:21;72.47;;;35.90;;
74335;SDS011;62755;-33.398;-70.572;2024-02-14T02:48:52;54.85;;;20.10;;
74335;SDS011;62755;-33.398;-70.572;2024-02-14T02:51:23;39.10;;;12.40;;
74335;SDS011;62755;-33.398;-70.572;2024-02-14T02:53:57;136.60;;;71.93;;
74335;SDS011;62755;-33.398;-70.572;2024-02-14T02:56:32;41.72;;;13.85;;
74335;SDS011;62755;-33.398;-70.572;2024-02-14T02:59:02;21.42;;;5.72;;
74335;SDS011;62755;-33.398;-70.572;2024-02-14T03:01:35;21.05;;;4.65;;
74335;SDS011;62755;-33.398;-70.572;2024-02-14T03:04:06;23.92;;;5.25;;
74335;SDS011;62755;-33.398;-70.572;2024-02-14T03:06:41;101.40;;;56.43;;
74335;SDS011;62755;-33.398;-70.572;2024-02-14T03:09:14;254.40;;;144.65;;
74335;SDS011;62755;-33.398;-70.572;2024-02-14T03:11:46;115.55;;;58.75;;
74335;SDS011;62755;-33.398;-70.572;2024-02-14T03:14:16;71.63;;;22.92;;
74335;SDS011;62755;-33.398;-70.572;2024-02-14T03:16:48;53.05;;;19.08;;
74335;SDS011;62755;-33.398;-70.572;2024-02-14T03:19:22;206.52;;;110.60;;
74335;SDS011;62755;-33.398;-70.572;2024-02-14T03:21:53;254.68;;;134.35;;
74335;SDS011;62755;-33.398;-70.572;2024-02-14T03:24:25;293.05;;;160.63;;
74335;SDS011;62755;-33.398;-70.572;2024-02-14T03:26:56;133.20;;;65.25;;
74335;SDS011;62755;-33.398;-70.572;2024-02-14T03:29:27;31.67;;;5.97;;
74335;SDS011;62755;-33.398;-70.572;2024-02-14T03:31:57;24.08;;;5.22;;
74335;SDS011;62755;-33.398;-70.572;2024-02-14T03:34:30;118.25;;;49.60;;
74335;SDS011;62755;-33.398;-70.572;2024-02-14T03:37:02;25.80;;;4.93;;
74335;SDS011;62755;-33.398;-70.572;2024-02-14T03:39:36;31.65;;;5.88;;
74335;SDS011;62755;-33.398;-70.572;2024-02-14T03:42:07;22.00;;;4.95;;
74335;SDS011;62755;-33.398;-70.572;2024-02-14T03:44:38;24.48;;;5.00;;
74335;SDS011;62755;-33.398;-70.572;2024-02-14T03:47:08;24.73;;;4.32;;
74335;SDS011;62755;-33.398;-70.572;2024-02-14T03:49:39;27.63;;;4.93;;
74335;SDS011;62755;-33.398;-70.572;2024-02-14T03:52:09;20.92;;;4.57;;
74335;SDS011;62755;-33.398;-70.572;2024-02-14T03:54:41;23.63;;;5.10;;
74335;SDS011;62755;-33.398;-70.572;2024-02-14T03:57:11;23.05;;;5.25;;
74335;SDS011;62755;-33.398;-70.572;2024-02-14T03:59:41;24.27;;;5.38;;
74335;SDS011;62755;-33.398;-70.572;2024-02-14T04:02:12;20.48;;;4.45;;
74335;SDS011;62755;-33.398;-70.572;2024-02-14T04:04:42;30.73;;;5.15;;
74335;SDS011;62755;-33.398;-70.572;2024-02-14T04:07:13;22.52;;;5.20;;
74335;SDS011;62755;-33.398;-70.572;2024-02-14T04:09:44;27.92;;;5.78;;
74335;SDS011;62755;-33.398;-70.572;2024-02-14T04:12:15;19.30;;;4.78;;
74335;SDS011;62755;-33.398;-70.572;2024-02-14T04:14:45;27.13;;;5.97;;
74335;SDS011;62755;-33.398;-70.572;2024-02-14T04:17:16;21.52;;;4.95;;
74335;SDS011;62755;-33.398;-70.572;2024-02-14T04:19:46;25.35;;;4.82;;
74335;SDS011;62755;-33.398;-70.572;2024-02-14T04:22:16;32.80;;;10.40;;
74335;SDS011;62755;-33.398;-70.572;2024-02-14T04:24:48;53.00;;;20.80;;
74335;SDS011;62755;-33.398;-70.572;2024-02-14T04:27:18;40.65;;;14.27;;
74335;SDS011;62755;-33.398;-70.572;2024-02-14T04:29:47;162.95;;;82.85;;
74335;SDS011;62755;-33.398;-70.572;2024-02-14T04:32:17;74.35;;;28.83;;
74335;SDS011;62755;-33.398;-70.572;2024-02-14T04:34:45;57.08;;;20.27;;
74335;SDS011;62755;-33.398;-70.572;2024-02-14T04:37:15;62.17;;;26.15;;
74335;SDS011;62755;-33.398;-70.572;2024-02-14T04:39:45;26.20;;;6.75;;
74335;SDS011;62755;-33.398;-70.572;2024-02-14T04:42:16;64.03;;;26.05;;
74335;SDS011;62755;-33.398;-70.572;2024-02-14T04:44:45;78.18;;;31.90;;
74335;SDS011;62755;-33.398;-70.572;2024-02-14T04:47:15;49.10;;;14.75;;
74335;SDS011;62755;-33.398;-70.572;2024-02-14T04:49:44;36.45;;;8.68;;
74335;SDS011;62755;-33.398;-70.572;2024-02-14T04:52:14;24.48;;;5.45;;
74335;SDS011;62755;-33.398;-70.572;2024-02-14T04:54:44;27.08;;;4.85;;
74335;SDS011;62755;-33.398;-70.572;2024-02-14T04:57:13;26.90;;;5.20;;
74335;SDS011;62755;-33.398;-70.572;2024-02-14T04:59:46;23.98;;;5.10;;
74335;SDS011;62755;-33.398;-70.572;2024-02-14T05:02:16;27.88;;;5.75;;
74335;SDS011;62755;-33.398;-70.572;2024-02-14T05:04:45;22.98;;;4.93;;
74335;SDS011;62755;-33.398;-70.572;2024-02-14T05:07:14;29.67;;;4.82;;
74335;SDS011;62755;-33.398;-70.572;2024-02-14T05:09:44;23.00;;;5.13;;
74335;SDS011;62755;-33.398;-70.572;2024-02-14T05:12:16;24.67;;;5.57;;
74335;SDS011;62755;-33.398;-70.572;2024-02-14T05:14:48;28.45;;;5.18;;
74335;SDS011;62755;-33.398;-70.572;2024-02-14T05:17:17;27.90;;;5.20;;
74335;SDS011;62755;-33.398;-70.572;2024-02-14T05:19:47;31.85;;;5.70;;
74335;SDS011;62755;-33.398;-70.572;2024-02-14T05:22:17;26.13;;;4.68;;
74335;SDS011;62755;-33.398;-70.572;2024-02-14T05:24:46;30.15;;;5.75;;
74335;SDS011;62755;-33.398;-70.572;2024-02-14T05:27:16;24.15;;;4.85;;
74335;SDS011;62755;-33.398;-70.572;2024-02-14T05:29:47;35.03;;;5.10;;
74335;SDS011;62755;-33.398;-70.572;2024-02-14T05:32:17;32.08;;;5.32;;
74335;SDS011;62755;-33.398;-70.572;2024-02-14T05:34:46;25.05;;;5.05;;
74335;SDS011;62755;-33.398;-70.572;2024-02-14T05:37:16;25.05;;;5.35;;
74335;SDS011;62755;-33.398;-70.572;2024-02-14T05:39:45;24.52;;;5.13;;
74335;SDS011;62755;-33.398;-70.572;2024-02-14T05:42:15;24.77;;;4.70;;
74335;SDS011;62755;-33.398;-70.572;2024-02-14T05:44:44;23.52;;;4.93;;
74335;SDS011;62755;-33.398;-70.572;2024-02-14T05:47:15;21.80;;;4.82;;
74335;SDS011;62755;-33.398;-70.572;2024-02-14T05:49:45;30.15;;;5.78;;
74335;SDS011;62755;-33.398;-70.572;2024-02-14T05:52:14;27.25;;;5.15;;
74335;SDS011;62755;-33.398;-70.572;2024-02-14T05:54:44;24.48;;;4.82;;
74335;SDS011;62755;-33.398;-70.572;2024-02-14T05:57:13;28.33;;;5.78;;
74335;SDS011;62755;-33.398;-70.572;2024-02-14T05:59:43;34.22;;;5.40;;
74335;SDS011;62755;-33.398;-70.572;2024-02-14T06:02:12;33.80;;;5.75;;
74335;SDS011;62755;-33.398;-70.572;2024-02-14T06:04:43;24.17;;;5.35;;
74335;SDS011;62755;-33.398;-70.572;2024-02-14T06:07:13;29.55;;;5.25;;
74335;SDS011;62755;-33.398;-70.572;2024-02-14T06:09:42;24.02;;;5.35;;
74335;SDS011;62755;-33.398;-70.572;2024-02-14T06:12:13;32.58;;;5.55;;
74335;SDS011;62755;-33.398;-70.572;2024-02-14T06:14:42;28.08;;;5.35;;
74335;SDS011;62755;-33.398;-70.572;2024-02-14T06:17:12;27.75;;;4.75;;
74335;SDS011;62755;-33.398;-70.572;2024-02-14T06:19:44;31.83;;;5.07;;
74335;SDS011;62755;-33.398;-70.572;2024-02-14T06:22:14;28.90;;;5.30;;
74335;SDS011;62755;-33.398;-70.572;2024-02-14T06:24:43;21.60;;;4.57;;
74335;SDS011;62755;-33.398;-70.572;2024-02-14T06:27:14;28.30;;;4.72;;
74335;SDS011;62755;-33.398;-70.572;2024-02-14T06:29:44;22.60;;;5.45;;
74335;SDS011;62755;-33.398;-70.572;2024-02-14T06:32:15;26.10;;;4.88;;
74335;SDS011;62755;-33.398;-70.572;2024-02-14T06:34:44;28.83;;;4.88;;
74335;SDS011;62755;-33.398;-70.572;2024-02-14T06:37:16;23.83;;;5.30;;
74335;SDS011;62755;-33.398;-70.572;2024-02-14T06:39:45;27.90;;;5.88;;
74335;SDS011;62755;-33.398;-70.572;2024-02-14T06:42:16;23.00;;;5.07;;
74335;SDS011;62755;-33.398;-70.572;2024-02-14T06:44:45;23.05;;;5.38;;
74335;SDS011;62755;-33.398;-70.572;2024-02-14T06:47:17;31.17;;;6.10;;
74335;SDS011;62755;-33.398;-70.572;2024-02-14T06:49:47;29.27;;;5.15;;
74335;SDS011;62755;-33.398;-70.572;2024-02-14T06:52:16;23.77;;;5.03;;
74335;SDS011;62755;-33.398;-70.572;2024-02-14T06:54:45;26.23;;;5.32;;
74335;SDS011;62755;-33.398;-70.572;2024-02-14T06:57:15;25.17;;;5.13;;
74335;SDS011;62755;-33.398;-70.572;2024-02-14T06:59:45;22.83;;;4.85;;
74335;SDS011;62755;-33.398;-70.572;2024-02-14T07:02:14;21.73;;;5.38;;
74335;SDS011;62755;-33.398;-70.572;2024-02-14T07:04:46;24.35;;;5.20;;
74335;SDS011;62755;-33.398;-70.572;2024-02-14T07:07:15;32.38;;;5.18;;
74335;SDS011;62755;-33.398;-70.572;2024-02-14T07:09:44;23.83;;;5.07;;
74335;SDS011;62755;-33.398;-70.572;2024-02-14T07:12:14;22.55;;;4.45;;
74335;SDS011;62755;-33.398;-70.572;2024-02-14T07:14:43;20.17;;;4.35;;
74335;SDS011;62755;-33.398;-70.572;2024-02-14T07:17:13;20.58;;;4.53;;
74335;SDS011;62755;-33.398;-70.572;2024-02-14T07:19:44;28.48;;;5.32;;
74335;SDS011;62755;-33.398;-70.572;2024-02-14T07:22:15;23.50;;;4.28;;
74335;SDS011;62755;-33.398;-70.572;2024-02-14T07:24:45;21.10;;;4.60;;
74335;SDS011;62755;-33.398;-70.572;2024-02-14T07:27:15;27.30;;;5.25;;
74335;SDS011;62755;-33.398;-70.572;2024-02-14T07:29:44;20.42;;;4.55;;
74335;SDS011;62755;-33.398;-70.572;2024-02-14T07:32:14;20.60;;;3.78;;
74335;SDS011;62755;-33.398;-70.572;2024-02-14T07:34:45;20.05;;;4.28;;
74335;SDS011;62755;-33.398;-70.572;2024-02-14T07:37:15;19.60;;;4.85;;
74335;SDS011;62755;-33.398;-70.572;2024-02-14T07:39:45;24.08;;;4.68;;
74335;SDS011;62755;-33.398;-70.572;2024-02-14T07:42:15;22.50;;;4.93;;
74335;SDS011;62755;-33.398;-70.572;2024-02-14T07:44:44;22.42;;;5.38;;
74335;SDS011;62755;-33.398;-70.572;2024-02-14T07:47:14;24.13;;;5.35;;
74335;SDS011;62755;-33.398;-70.572;2024-02-14T07:49:47;26.17;;;5.10;;
74335;SDS011;62755;-33.398;-70.572;2024-02-14T07:52:19;28.90;;;4.93;;
74335;SDS011;62755;-33.398;-70.572;2024-02-14T07:54:51;27.70;;;4.72;;
74335;SDS011;62755;-33.398;-70.572;2024-02-14T07:57:22;28.38;;;5.68;;
74335;SDS011;62755;-33.398;-70.572;2024-02-14T07:59:51;19.92;;;4.32;;
74335;SDS011;62755;-33.398;-70.572;2024-02-14T08:02:21;22.20;;;4.50;;
74335;SDS011;62755;-33.398;-70.572;2024-02-14T08:04:52;22.55;;;4.97;;
74335;SDS011;62755;-33.398;-70.572;2024-02-14T08:07:21;21.48;;;4.78;;
74335;SDS011;62755;-33.398;-70.572;2024-02-14T08:09:51;23.67;;;4.68;;
74335;SDS011;62755;-33.398;-70.572;2024-02-14T08:12:20;19.25;;;4.82;;
74335;SDS011;62755;-33.398;-70.572;2024-02-14T08:14:52;27.52;;;5.07;;
74335;SDS011;62755;-33.398;-70.572;2024-02-14T08:17:21;24.88;;;5.45;;
74335;SDS011;62755;-33.398;-70.572;2024-02-14T08:19:53;20.13;;;4.60;;
74335;SDS011;62755;-33.398;-70.572;2024-02-14T08:22:22;24.45;;;4.50;;
74335;SDS011;62755;-33.398;-70.572;2024-02-14T08:24:52;25.90;;;5.28;;
74335;SDS011;62755;-33.398;-70.572;2024-02-14T08:27:22;24.52;;;5.13;;
74335;SDS011;62755;-33.398;-70.572;2024-02-14T08:29:51;26.88;;;4.65;;
74335;SDS011;62755;-33.398;-70.572;2024-02-14T08:32:21;28.95;;;4.63;;
74335;SDS011;62755;-33.398;-70.572;2024-02-14T08:34:52;19.98;;;4.68;;
74335;SDS011;62755;-33.398;-70.572;2024-02-14T08:37:22;19.83;;;4.78;;
74335;SDS011;62755;-33.398;-70.572;2024-02-14T08:39:52;22.98;;;4.47;;
74335;SDS011;62755;-33.398;-70.572;2024-02-14T08:42:21;31.35;;;5.25;;
74335;SDS011;62755;-33.398;-70.572;2024-02-14T08:44:50;30.00;;;5.28;;
74335;SDS011;62755;-33.398;-70.572;2024-02-14T08:47:20;34.50;;;6.07;;
74335;SDS011;62755;-33.398;-70.572;2024-02-14T08:49:49;23.83;;;5.07;;
74335;SDS011;62755;-33.398;-70.572;2024-02-14T08:52:21;25.75;;;4.90;;
74335;SDS011;62755;-33.398;-70.572;2024-02-14T08:54:51;26.20;;;5.53;;
74335;SDS011;62755;-33.398;-70.572;2024-02-14T08:57:21;31.08;;;5.03;;
74335;SDS011;62755;-33.398;-70.572;2024-02-14T08:59:50;30.17;;;5.95;;
74335;SDS011;62755;-33.398;-70.572;2024-02-14T09:02:20;26.38;;;5.57;;
74335;SDS011;62755;-33.398;-70.572;2024-02-14T09:04:53;27.02;;;5.25;;
74335;SDS011;62755;-33.398;-70.572;2024-02-14T09:07:22;26.42;;;4.72;;
74335;SDS011;62755;-33.398;-70.572;2024-02-14T09:09:52;28.90;;;4.30;;
74335;SDS011;62755;-33.398;-70.572;2024-02-14T09:12:21;26.38;;;5.68;;
74335;SDS011;62755;-33.398;-70.572;2024-02-14T09:14:51;28.92;;;5.57;;
74335;SDS011;62755;-33.398;-70.572;2024-02-14T09:17:20;27.13;;;4.97;;
74335;SDS011;62755;-33.398;-70.572;2024-02-14T09:19:50;28.23;;;5.53;;
74335;SDS011;62755;-33.398;-70.572;2024-02-14T09:22:21;23.08;;;5.15;;
74335;SDS011;62755;-33.398;-70.572;2024-02-14T09:24:50;30.08;;;5.35;;
74335;SDS011;62755;-33.398;-70.572;2024-02-14T09:27:20;30.85;;;5.95;;
74335;SDS011;62755;-33.398;-70.572;2024-02-14T09:29:49;35.05;;;4.90;;
74335;SDS011;62755;-33.398;-70.572;2024-02-14T09:32:19;21.83;;;4.65;;
74335;SDS011;62755;-33.398;-70.572;2024-02-14T09:34:48;27.90;;;5.45;;
74335;SDS011;62755;-33.398;-70.572;2024-02-14T09:37:18;18.65;;;5.15;;
74335;SDS011;62755;-33.398;-70.572;2024-02-14T09:39:49;21.20;;;4.70;;
74335;SDS011;62755;-33.398;-70.572;2024-02-14T09:42:19;27.13;;;5.25;;
74335;SDS011;62755;-33.398;-70.572;2024-02-14T09:44:57;27.15;;;5.63;;
74335;SDS011;62755;-33.398;-70.572;2024-02-14T09:47:28;28.85;;;5.97;;
74335;SDS011;62755;-33.398;-70.572;2024-02-14T09:50:01;25.65;;;5.85;;
74335;SDS011;62755;-33.398;-70.572;2024-02-14T09:52:32;25.67;;;5.53;;
74335;SDS011;62755;-33.398;-70.572;2024-02-14T09:55:04;29.90;;;5.60;;
74335;SDS011;62755;-33.398;-70.572;2024-02-14T09:57:34;29.13;;;5.25;;
74335;SDS011;62755;-33.398;-70.572;2024-02-14T10:00:07;26.02;;;5.13;;
74335;SDS011;62755;-33.398;-70.572;2024-02-14T10:02:40;32.35;;;5.18;;
74335;SDS011;62755;-33.398;-70.572;2024-02-14T10:05:10;25.45;;;5.32;;
74335;SDS011;62755;-33.398;-70.572;2024-02-14T10:07:42;29.85;;;5.47;;
74335;SDS011;62755;-33.398;-70.572;2024-02-14T10:10:14;34.95;;;5.97;;
74335;SDS011;62755;-33.398;-70.572;2024-02-14T10:12:43;35.92;;;6.05;;
74335;SDS011;62755;-33.398;-70.572;2024-02-14T10:15:13;32.95;;;5.60;;
74335;SDS011;62755;-33.398;-70.572;2024-02-14T10:17:43;27.92;;;5.28;;
74335;SDS011;62755;-33.398;-70.572;2024-02-14T10:20:16;33.42;;;6.07;;
74335;SDS011;62755;-33.398;-70.572;2024-02-14T10:22:47;33.20;;;6.50;;
74335;SDS011;62755;-33.398;-70.572;2024-02-14T10:25:18;44.42;;;5.97;;
74335;SDS011;62755;-33.398;-70.572;2024-02-14T10:27:48;28.45;;;6.57;;
74335;SDS011;62755;-33.398;-70.572;2024-02-14T10:30:17;36.65;;;6.00;;
74335;SDS011;62755;-33.398;-70.572;2024-02-14T10:32:47;29.30;;;5.60;;
74335;SDS011;62755;-33.398;-70.572;2024-02-14T10:35:17;27.00;;;5.47;;
74335;SDS011;62755;-33.398;-70.572;2024-02-14T10:37:49;33.08;;;5.38;;
74335;SDS011;62755;-33.398;-70.572;2024-02-14T10:40:20;23.17;;;5.00;;
74335;SDS011;62755;-33.398;-70.572;2024-02-14T10:42:50;31.10;;;5.50;;
74335;SDS011;62755;-33.398;-70.572;2024-02-14T10:45:20;31.30;;;5.55;;
74335;SDS011;62755;-33.398;-70.572;2024-02-14T10:47:49;22.38;;;4.97;;
74335;SDS011;62755;-33.398;-70.572;2024-02-14T10:50:21;32.40;;;6.38;;
74335;SDS011;62755;-33.398;-70.572;2024-02-14T10:52:52;34.65;;;6.47;;
74335;SDS011;62755;-33.398;-70.572;2024-02-14T10:55:27;30.35;;;6.18;;
74335;SDS011;62755;-33.398;-70.572;2024-02-14T10:57:59;25.25;;;5.30;;
74335;SDS011;62755;-33.398;-70.572;2024-02-14T11:00:30;28.77;;;6.93;;
74335;SDS011;62755;-33.398;-70.572;2024-02-14T11:03:00;32.28;;;5.68;;
74335;SDS011;62755;-33.398;-70.572;2024-02-14T11:05:31;31.58;;;6.03;;
74335;SDS011;62755;-33.398;-70.572;2024-02-14T11:08:13;37.88;;;6.32;;
74335;SDS011;62755;-33.398;-70.572;2024-02-14T11:10:51;33.88;;;5.85;;
74335;SDS011;62755;-33.398;-70.572;2024-02-14T11:13:25;27.88;;;5.78;;
74335;SDS011;62755;-33.398;-70.572;2024-02-14T11:15:56;35.05;;;6.60;;
74335;SDS011;62755;-33.398;-70.572;2024-02-14T11:18:28;30.30;;;5.78;;
74335;SDS011;62755;-33.398;-70.572;2024-02-14T11:20:58;28.90;;;6.32;;
74335;SDS011;62755;-33.398;-70.572;2024-02-14T11:23:29;31.30;;;6.47;;
74335;SDS011;62755;-33.398;-70.572;2024-02-14T11:26:01;31.95;;;7.43;;
74335;SDS011;62755;-33.398;-70.572;2024-02-14T11:28:36;31.95;;;7.80;;
74335;SDS011;62755;-33.398;-70.572;2024-02-14T11:31:07;34.53;;;7.50;;
74335;SDS011;62755;-33.398;-70.572;2024-02-14T11:33:37;30.35;;;8.30;;
74335;SDS011;62755;-33.398;-70.572;2024-02-14T11:36:07;29.25;;;6.82;;
74335;SDS011;62755;-33.398;-70.572;2024-02-14T11:38:40;33.75;;;7.18;;
74335;SDS011;62755;-33.398;-70.572;2024-02-14T11:41:12;29.20;;;6.75;;
74335;SDS011;62755;-33.398;-70.572;2024-02-14T11:43:50;34.33;;;6.60;;
74335;SDS011;62755;-33.398;-70.572;2024-02-14T11:46:20;33.92;;;7.20;;
74335;SDS011;62755;-33.398;-70.572;2024-02-14T11:48:50;40.13;;;7.90;;
74335;SDS011;62755;-33.398;-70.572;2024-02-14T11:51:21;41.03;;;7.97;;
74335;SDS011;62755;-33.398;-70.572;2024-02-14T11:53:51;35.88;;;8.50;;
74335;SDS011;62755;-33.398;-70.572;2024-02-14T11:56:22;30.45;;;8.18;;
74335;SDS011;62755;-33.398;-70.572;2024-02-14T11:58:52;35.85;;;7.88;;
74335;SDS011;62755;-33.398;-70.572;2024-02-14T12:01:24;33.97;;;8.15;;
74335;SDS011;62755;-33.398;-70.572;2024-02-14T12:03:56;39.80;;;9.30;;
74335;SDS011;62755;-33.398;-70.572;2024-02-14T12:06:26;55.47;;;10.88;;
74335;SDS011;62755;-33.398;-70.572;2024-02-14T12:08:57;41.97;;;9.88;;
74335;SDS011;62755;-33.398;-70.572;2024-02-14T12:11:32;50.42;;;10.55;;
74335;SDS011;62755;-33.398;-70.572;2024-02-14T12:14:03;38.85;;;9.23;;
74335;SDS011;62755;-33.398;-70.572;2024-02-14T12:16:34;42.72;;;9.82;;
74335;SDS011;62755;-33.398;-70.572;2024-02-14T12:19:06;60.13;;;14.05;;
74335;SDS011;62755;-33.398;-70.572;2024-02-14T12:21:36;48.08;;;11.40;;
74335;SDS011;62755;-33.398;-70.572;2024-02-14T12:24:06;39.50;;;11.73;;
74335;SDS011;62755;-33.398;-70.572;2024-02-14T12:26:38;61.40;;;12.43;;
74335;SDS011;62755;-33.398;-70.572;2024-02-14T12:29:10;65.80;;;16.58;;
74335;SDS011;62755;-33.398;-70.572;2024-02-14T12:31:40;57.03;;;18.45;;
74335;SDS011;62755;-33.398;-70.572;2024-02-14T12:34:10;54.88;;;14.30;;
74335;SDS011;62755;-33.398;-70.572;2024-02-14T12:36:40;59.42;;;20.85;;
74335;SDS011;62755;-33.398;-70.572;2024-02-14T12:39:09;84.28;;;32.42;;
74335;SDS011;62755;-33.398;-70.572;2024-02-14T12:41:41;49.10;;;14.18;;
74335;SDS011;62755;-33.398;-70.572;2024-02-14T12:44:10;56.90;;;15.85;;
74335;SDS011;62755;-33.398;-70.572;2024-02-14T12:46:40;59.97;;;21.80;;
74335;SDS011;62755;-33.398;-70.572;2024-02-14T12:49:09;69.13;;;33.58;;
74335;SDS011;62755;-33.398;-70.572;2024-02-14T12:51:39;74.95;;;28.38;;
74335;SDS011;62755;-33.398;-70.572;2024-02-14T12:54:09;74.10;;;24.33;;
74335;SDS011;62755;-33.398;-70.572;2024-02-14T12:56:42;81.18;;;32.42;;
74335;SDS011;62755;-33.398;-70.572;2024-02-14T12:59:14;91.20;;;36.40;;
74335;SDS011;62755;-33.398;-70.572;2024-02-14T13:01:46;77.90;;;30.13;;
74335;SDS011;62755;-33.398;-70.572;2024-02-14T13:04:15;56.42;;;19.17;;
74335;SDS011;62755;-33.398;-70.572;2024-02-14T13:06:45;86.78;;;35.60;;
74335;SDS011;62755;-33.398;-70.572;2024-02-14T13:09:15;69.15;;;23.40;;
74335;SDS011;62755;-33.398;-70.572;2024-02-14T13:11:47;51.85;;;16.58;;
74335;SDS011;62755;-33.398;-70.572;2024-02-14T13:14:17;43.53;;;15.15;;
74335;SDS011;62755;-33.398;-70.572;2024-02-14T13:16:47;60.55;;;17.13;;
74335;SDS011;62755;-33.398;-70.572;2024-02-14T13:19:16;55.67;;;15.10;;
74335;SDS011;62755;-33.398;-70.572;2024-02-14T13:21:46;45.05;;;14.55;;
74335;SDS011;62755;-33.398;-70.572;2024-02-14T13:24:15;47.58;;;13.70;;
74335;SDS011;62755;-33.398;-70.572;2024-02-14T13:26:46;50.72;;;20.38;;
74335;SDS011;62755;-33.398;-70.572;2024-02-14T13:29:16;58.30;;;20.40;;
74335;SDS011;62755;-33.398;-70.572;2024-02-14T13:31:45;51.40;;;19.38;;
74335;SDS011;62755;-33.398;-70.572;2024-02-14T13:34:15;53.35;;;20.25;;
74335;SDS011;62755;-33.398;-70.572;2024-02-14T13:36:45;45.28;;;15.07;;
74335;SDS011;62755;-33.398;-70.572;2024-02-14T13:39:15;45.58;;;15.05;;
74335;SDS011;62755;-33.398;-70.572;2024-02-14T13:41:46;52.42;;;17.98;;
74335;SDS011;62755;-33.398;-70.572;2024-02-14T13:44:16;45.33;;;13.82;;
74335;SDS011;62755;-33.398;-70.572;2024-02-14T13:46:46;55.67;;;13.80;;
74335;SDS011;62755;-33.398;-70.572;2024-02-14T13:49:16;39.95;;;13.93;;
74335;SDS011;62755;-33.398;-70.572;2024-02-14T13:51:47;44.30;;;14.43;;
74335;SDS011;62755;-33.398;-70.572;2024-02-14T13:54:17;49.40;;;13.85;;
74335;SDS011;62755;-33.398;-70.572;2024-02-14T13:56:49;50.58;;;14.90;;
74335;SDS011;62755;-33.398;-70.572;2024-02-14T13:59:18;46.00;;;13.88;;
74335;SDS011;62755;-33.398;-70.572;2024-02-14T14:01:48;41.97;;;13.95;;
74335;SDS011;62755;-33.398;-70.572;2024-02-14T14:04:17;46.45;;;14.13;;
74335;SDS011;62755;-33.398;-70.572;2024-02-14T14:06:47;56.90;;;14.55;;
74335;SDS011;62755;-33.398;-70.572;2024-02-14T14:09:17;64.70;;;14.18;;
74335;SDS011;62755;-33.398;-70.572;2024-02-14T14:11:46;48.17;;;15.25;;
74335;SDS011;62755;-33.398;-70.572;2024-02-14T14:14:18;50.63;;;15.60;;
74335;SDS011;62755;-33.398;-70.572;2024-02-14T14:16:48;50.47;;;16.05;;